Terminal Aerodrome Forecast
Issued by NWS Quad Cities IA IL

Home | Current Version | Previous Version | Text Only | Print | Product List | Glossary On
Versions: 1 2 3 4 5 6 7 8 9 10 11 12 13 14 15 16 17 18 19 20 21 22 23
000
FTUS43 KDVN 292300
TAFMLI
TAF
KMLI 292320Z 3000/3024 32019G26KT P6SM OVC025
     FM300500 32014KT P6SM SCT030
     FM301200 33008KT P6SM FEW030
     FM301700 VRB04KT P6SM SKC=

USA.gov is the U.S. government's official web portal to all federal, state and local government web resources and services.